Airfield :
LOGIN :

Register | Disclaimer

   EN    FR    IT 

 










Legend :    VFR   Marginal VFR   IFR   Intensive IFR   Very Intensive IFR
Visi :
Ceiling :
>= 8 km
>= 3000ft
5 to 8 km
1000 to 3000 ft
1500m to 5 km
500 to 1000 ft
800 to 1500m
200 to 500 ft
< 800m
< 200 ft
Symbols :   Thunderstorms  Fog  Heavy snow  Heavy precipitations  Wind > 20 kt
SIGMETs :     Misc.  Thunderstorms  Icing  Turbulence  Mountain Waves  Volcanic Ashes






- Airport Elevation : 1708 ft
- IATA code : SJJ


LQSA - Sarajevo

CURRENT METAR :
  • 301030Z VRB02KT 9999 SCT050 11/M01 Q1016

EXPIRED METARs :
  • 301000Z 32005KT 260V040 9999 SCT050 10/M02 Q1016
  • 300930Z 32003KT 260V070 9999 SCT050 10/M01 Q1016
  • 300900Z VRB03KT 9999 SCT050 10/00 Q1017
  • 300830Z VRB01KT 9999 SCT050 08/01 Q1017
  • 300800Z VRB02KT 9999 BKN045 07/02 Q1017

TAF TAF LQSA
Valid from the 30 at 06:00 until the 31 at 06:00 UTC


300655Z 3006/3106 33005KT 9999 SCT050 TX10/3013Z TNM00/3105Z
PROB30
TEMPO 3012/3018 04010KT
PROB40
TEMPO 3102/3106 3000 -SN BKN010 OVC025



MET'MAP, your aeronautical weather chart ! - Copyright ORBIFLY December 2007 - Disclaimer

ORBIFLY MET'MAP TEAM :

Programming & Development : Alexandra Zaïnal
Concept & original design : Baudouin d'Aumeries
Assistance for programming : Marc-Olivier Méhu
Technical & hardware support : Manuel Goepfert

Contact : metmap@orbifly.com




SOURCES & CREDITS :

   NOAA